sensor_id;sensor_type;location;lat;lon;timestamp;P1;durP1;ratioP1;P2;durP2;ratioP2
3993;SDS011;2011;48.238;13.948;2023-11-18T00:02:14;18.03;;;9.13;;
3993;SDS011;2011;48.238;13.948;2023-11-18T00:04:41;14.23;;;9.47;;
3993;SDS011;2011;48.238;13.948;2023-11-18T00:07:09;16.10;;;9.33;;
3993;SDS011;2011;48.238;13.948;2023-11-18T00:09:36;20.57;;;9.90;;
3993;SDS011;2011;48.238;13.948;2023-11-18T00:12:05;16.67;;;9.70;;
3993;SDS011;2011;48.238;13.948;2023-11-18T00:14:33;15.50;;;9.90;;
3993;SDS011;2011;48.238;13.948;2023-11-18T00:17:00;20.20;;;8.80;;
3993;SDS011;2011;48.238;13.948;2023-11-18T00:19:27;21.03;;;9.23;;
3993;SDS011;2011;48.238;13.948;2023-11-18T00:21:55;16.47;;;9.30;;
3993;SDS011;2011;48.238;13.948;2023-11-18T00:24:22;19.10;;;10.00;;
3993;SDS011;2011;48.238;13.948;2023-11-18T00:26:49;16.53;;;9.37;;
3993;SDS011;2011;48.238;13.948;2023-11-18T00:29:18;16.63;;;10.07;;
3993;SDS011;2011;48.238;13.948;2023-11-18T00:31:45;16.07;;;9.30;;
3993;SDS011;2011;48.238;13.948;2023-11-18T00:34:12;16.33;;;9.87;;
3993;SDS011;2011;48.238;13.948;2023-11-18T00:36:39;14.83;;;9.67;;
3993;SDS011;2011;48.238;13.948;2023-11-18T00:39:07;25.00;;;9.63;;
3993;SDS011;2011;48.238;13.948;2023-11-18T00:41:34;18.27;;;8.73;;
3993;SDS011;2011;48.238;13.948;2023-11-18T00:44:01;13.10;;;7.33;;
3993;SDS011;2011;48.238;13.948;2023-11-18T00:46:29;24.83;;;8.40;;
3993;SDS011;2011;48.238;13.948;2023-11-18T00:49:01;13.97;;;7.97;;
3993;SDS011;2011;48.238;13.948;2023-11-18T00:51:28;12.83;;;8.17;;
3993;SDS011;2011;48.238;13.948;2023-11-18T00:53:55;12.30;;;7.60;;
3993;SDS011;2011;48.238;13.948;2023-11-18T00:56:22;17.07;;;8.87;;
3993;SDS011;2011;48.238;13.948;2023-11-18T00:58:49;13.13;;;8.00;;
3993;SDS011;2011;48.238;13.948;2023-11-18T01:01:17;11.70;;;8.07;;
3993;SDS011;2011;48.238;13.948;2023-11-18T01:03:46;15.80;;;9.30;;
3993;SDS011;2011;48.238;13.948;2023-11-18T01:06:13;13.63;;;7.77;;
3993;SDS011;2011;48.238;13.948;2023-11-18T01:08:43;13.47;;;8.53;;
3993;SDS011;2011;48.238;13.948;2023-11-18T01:11:10;13.73;;;8.40;;
3993;SDS011;2011;48.238;13.948;2023-11-18T01:13:37;16.43;;;8.00;;
3993;SDS011;2011;48.238;13.948;2023-11-18T01:16:05;12.60;;;8.27;;
3993;SDS011;2011;48.238;13.948;2023-11-18T01:18:32;18.30;;;8.07;;
3993;SDS011;2011;48.238;13.948;2023-11-18T01:21:01;19.03;;;8.27;;
3993;SDS011;2011;48.238;13.948;2023-11-18T01:23:28;12.90;;;7.70;;
3993;SDS011;2011;48.238;13.948;2023-11-18T01:25:55;12.30;;;7.03;;
3993;SDS011;2011;48.238;13.948;2023-11-18T01:28:22;10.27;;;7.00;;
3993;SDS011;2011;48.238;13.948;2023-11-18T01:30:51;11.03;;;7.20;;
3993;SDS011;2011;48.238;13.948;2023-11-18T01:33:18;11.10;;;7.03;;
3993;SDS011;2011;48.238;13.948;2023-11-18T01:35:45;11.70;;;7.50;;
3993;SDS011;2011;48.238;13.948;2023-11-18T01:38:14;14.77;;;6.70;;
3993;SDS011;2011;48.238;13.948;2023-11-18T01:40:41;11.87;;;7.93;;
3993;SDS011;2011;48.238;13.948;2023-11-18T01:43:08;12.20;;;7.30;;
3993;SDS011;2011;48.238;13.948;2023-11-18T01:45:39;13.00;;;7.17;;
3993;SDS011;2011;48.238;13.948;2023-11-18T01:48:07;13.17;;;7.57;;
3993;SDS011;2011;48.238;13.948;2023-11-18T01:50:34;14.50;;;7.50;;
3993;SDS011;2011;48.238;13.948;2023-11-18T01:53:02;14.00;;;8.07;;
3993;SDS011;2011;48.238;13.948;2023-11-18T01:55:31;14.23;;;7.70;;
3993;SDS011;2011;48.238;13.948;2023-11-18T01:57:59;15.00;;;8.27;;
3993;SDS011;2011;48.238;13.948;2023-11-18T02:00:33;11.30;;;7.07;;
3993;SDS011;2011;48.238;13.948;2023-11-18T02:03:03;12.43;;;7.50;;
3993;SDS011;2011;48.238;13.948;2023-11-18T02:05:31;20.57;;;7.97;;
3993;SDS011;2011;48.238;13.948;2023-11-18T02:07:59;10.13;;;7.10;;
3993;SDS011;2011;48.238;13.948;2023-11-18T02:10:30;14.03;;;7.00;;
3993;SDS011;2011;48.238;13.948;2023-11-18T02:13:01;12.53;;;7.47;;
3993;SDS011;2011;48.238;13.948;2023-11-18T02:15:35;10.63;;;6.53;;
3993;SDS011;2011;48.238;13.948;2023-11-18T02:18:06;15.93;;;8.30;;
3993;SDS011;2011;48.238;13.948;2023-11-18T02:20:35;12.63;;;7.20;;
3993;SDS011;2011;48.238;13.948;2023-11-18T02:23:04;14.40;;;7.20;;
3993;SDS011;2011;48.238;13.948;2023-11-18T02:25:34;12.27;;;7.60;;
3993;SDS011;2011;48.238;13.948;2023-11-18T02:28:07;11.27;;;7.67;;
3993;SDS011;2011;48.238;13.948;2023-11-18T02:30:34;11.63;;;7.20;;
3993;SDS011;2011;48.238;13.948;2023-11-18T02:33:02;11.07;;;6.90;;
3993;SDS011;2011;48.238;13.948;2023-11-18T02:35:37;13.37;;;7.30;;
3993;SDS011;2011;48.238;13.948;2023-11-18T02:38:08;15.27;;;6.90;;
3993;SDS011;2011;48.238;13.948;2023-11-18T02:40:37;12.43;;;7.70;;
3993;SDS011;2011;48.238;13.948;2023-11-18T02:43:10;15.30;;;8.03;;
3993;SDS011;2011;48.238;13.948;2023-11-18T02:45:37;16.13;;;7.97;;
3993;SDS011;2011;48.238;13.948;2023-11-18T02:48:06;12.27;;;7.10;;
3993;SDS011;2011;48.238;13.948;2023-11-18T02:50:33;17.37;;;7.80;;
3993;SDS011;2011;48.238;13.948;2023-11-18T02:53:01;14.00;;;8.37;;
3993;SDS011;2011;48.238;13.948;2023-11-18T02:55:28;14.83;;;7.50;;
3993;SDS011;2011;48.238;13.948;2023-11-18T02:57:55;18.10;;;8.00;;
3993;SDS011;2011;48.238;13.948;2023-11-18T03:00:24;17.93;;;7.10;;
3993;SDS011;2011;48.238;13.948;2023-11-18T03:02:51;10.43;;;6.57;;
3993;SDS011;2011;48.238;13.948;2023-11-18T03:05:18;11.80;;;7.30;;
3993;SDS011;2011;48.238;13.948;2023-11-18T03:07:46;9.30;;;6.43;;
3993;SDS011;2011;48.238;13.948;2023-11-18T03:10:15;10.90;;;7.30;;
3993;SDS011;2011;48.238;13.948;2023-11-18T03:12:46;12.17;;;6.90;;
3993;SDS011;2011;48.238;13.948;2023-11-18T03:15:15;10.70;;;6.17;;
3993;SDS011;2011;48.238;13.948;2023-11-18T03:17:44;12.40;;;7.47;;
3993;SDS011;2011;48.238;13.948;2023-11-18T03:20:13;11.53;;;6.70;;
3993;SDS011;2011;48.238;13.948;2023-11-18T03:22:42;10.27;;;6.40;;
3993;SDS011;2011;48.238;13.948;2023-11-18T03:25:10;10.63;;;7.20;;
3993;SDS011;2011;48.238;13.948;2023-11-18T03:27:37;9.77;;;6.30;;
3993;SDS011;2011;48.238;13.948;2023-11-18T03:30:05;11.43;;;7.00;;
3993;SDS011;2011;48.238;13.948;2023-11-18T03:32:33;10.17;;;6.63;;
3993;SDS011;2011;48.238;13.948;2023-11-18T03:35:01;11.87;;;7.00;;
3993;SDS011;2011;48.238;13.948;2023-11-18T03:37:29;9.97;;;6.17;;
3993;SDS011;2011;48.238;13.948;2023-11-18T03:39:57;11.10;;;6.07;;
3993;SDS011;2011;48.238;13.948;2023-11-18T03:42:24;10.53;;;6.40;;
3993;SDS011;2011;48.238;13.948;2023-11-18T03:44:52;9.83;;;6.47;;
3993;SDS011;2011;48.238;13.948;2023-11-18T03:47:19;8.70;;;6.10;;
3993;SDS011;2011;48.238;13.948;2023-11-18T03:49:49;12.33;;;7.23;;
3993;SDS011;2011;48.238;13.948;2023-11-18T03:52:17;12.63;;;5.87;;
3993;SDS011;2011;48.238;13.948;2023-11-18T03:54:44;9.90;;;6.40;;
3993;SDS011;2011;48.238;13.948;2023-11-18T03:57:11;16.67;;;5.73;;
3993;SDS011;2011;48.238;13.948;2023-11-18T03:59:38;12.73;;;6.97;;
3993;SDS011;2011;48.238;13.948;2023-11-18T04:02:06;9.97;;;6.20;;
3993;SDS011;2011;48.238;13.948;2023-11-18T04:04:33;11.37;;;6.73;;
3993;SDS011;2011;48.238;13.948;2023-11-18T04:07:00;10.27;;;6.10;;
3993;SDS011;2011;48.238;13.948;2023-11-18T04:09:28;9.27;;;6.57;;
3993;SDS011;2011;48.238;13.948;2023-11-18T04:11:56;11.90;;;7.20;;
3993;SDS011;2011;48.238;13.948;2023-11-18T04:14:23;11.37;;;7.30;;
3993;SDS011;2011;48.238;13.948;2023-11-18T04:16:51;14.77;;;7.30;;
3993;SDS011;2011;48.238;13.948;2023-11-18T04:19:18;8.90;;;6.90;;
3993;SDS011;2011;48.238;13.948;2023-11-18T04:21:46;12.87;;;7.93;;
3993;SDS011;2011;48.238;13.948;2023-11-18T04:24:14;10.20;;;6.40;;
3993;SDS011;2011;48.238;13.948;2023-11-18T04:26:43;10.90;;;7.20;;
3993;SDS011;2011;48.238;13.948;2023-11-18T04:29:10;10.10;;;7.50;;
3993;SDS011;2011;48.238;13.948;2023-11-18T04:31:37;14.83;;;6.50;;
3993;SDS011;2011;48.238;13.948;2023-11-18T04:34:05;9.77;;;6.67;;
3993;SDS011;2011;48.238;13.948;2023-11-18T04:36:32;12.40;;;7.53;;
3993;SDS011;2011;48.238;13.948;2023-11-18T04:38:59;10.57;;;6.57;;
3993;SDS011;2011;48.238;13.948;2023-11-18T04:41:28;11.30;;;7.40;;
3993;SDS011;2011;48.238;13.948;2023-11-18T04:43:58;12.37;;;7.50;;
3993;SDS011;2011;48.238;13.948;2023-11-18T04:46:25;12.70;;;7.80;;
3993;SDS011;2011;48.238;13.948;2023-11-18T04:48:52;14.33;;;7.20;;
3993;SDS011;2011;48.238;13.948;2023-11-18T04:51:19;12.67;;;7.00;;
3993;SDS011;2011;48.238;13.948;2023-11-18T04:53:47;15.20;;;7.77;;
3993;SDS011;2011;48.238;13.948;2023-11-18T04:56:14;13.00;;;7.70;;
3993;SDS011;2011;48.238;13.948;2023-11-18T04:58:43;26.63;;;8.30;;
3993;SDS011;2011;48.238;13.948;2023-11-18T05:01:13;13.70;;;7.70;;
3993;SDS011;2011;48.238;13.948;2023-11-18T05:03:40;12.37;;;7.80;;
3993;SDS011;2011;48.238;13.948;2023-11-18T05:06:07;15.37;;;7.93;;
3993;SDS011;2011;48.238;13.948;2023-11-18T05:08:34;11.77;;;7.90;;
3993;SDS011;2011;48.238;13.948;2023-11-18T05:11:02;17.87;;;8.90;;
3993;SDS011;2011;48.238;13.948;2023-11-18T05:13:29;14.27;;;7.20;;
3993;SDS011;2011;48.238;13.948;2023-11-18T05:15:57;13.23;;;7.80;;
3993;SDS011;2011;48.238;13.948;2023-11-18T05:18:26;15.97;;;7.93;;
3993;SDS011;2011;48.238;13.948;2023-11-18T05:20:54;12.50;;;8.13;;
3993;SDS011;2011;48.238;13.948;2023-11-18T05:23:22;12.20;;;8.07;;
3993;SDS011;2011;48.238;13.948;2023-11-18T05:25:50;12.00;;;8.17;;
3993;SDS011;2011;48.238;13.948;2023-11-18T05:28:17;15.60;;;8.30;;
3993;SDS011;2011;48.238;13.948;2023-11-18T05:30:45;12.83;;;8.27;;
3993;SDS011;2011;48.238;13.948;2023-11-18T05:33:12;12.20;;;7.67;;
3993;SDS011;2011;48.238;13.948;2023-11-18T05:35:44;15.67;;;7.90;;
3993;SDS011;2011;48.238;13.948;2023-11-18T05:38:14;12.93;;;7.70;;
3993;SDS011;2011;48.238;13.948;2023-11-18T05:40:44;12.53;;;8.13;;
3993;SDS011;2011;48.238;13.948;2023-11-18T05:43:21;14.03;;;8.90;;
3993;SDS011;2011;48.238;13.948;2023-11-18T05:45:50;16.03;;;8.53;;
3993;SDS011;2011;48.238;13.948;2023-11-18T05:48:36;13.07;;;8.10;;
3993;SDS011;2011;48.238;13.948;2023-11-18T05:51:05;14.10;;;8.70;;
3993;SDS011;2011;48.238;13.948;2023-11-18T05:53:32;15.17;;;8.00;;
3993;SDS011;2011;48.238;13.948;2023-11-18T05:55:59;14.97;;;8.30;;
3993;SDS011;2011;48.238;13.948;2023-11-18T05:58:26;12.07;;;7.60;;
3993;SDS011;2011;48.238;13.948;2023-11-18T06:00:53;13.33;;;8.33;;
3993;SDS011;2011;48.238;13.948;2023-11-18T06:03:20;21.00;;;8.30;;
3993;SDS011;2011;48.238;13.948;2023-11-18T06:05:47;14.93;;;8.23;;
3993;SDS011;2011;48.238;13.948;2023-11-18T06:08:15;13.23;;;8.50;;
3993;SDS011;2011;48.238;13.948;2023-11-18T06:10:43;15.63;;;8.07;;
3993;SDS011;2011;48.238;13.948;2023-11-18T06:13:10;14.63;;;8.37;;
3993;SDS011;2011;48.238;13.948;2023-11-18T06:15:38;19.57;;;9.60;;
3993;SDS011;2011;48.238;13.948;2023-11-18T06:18:05;17.83;;;9.70;;
3993;SDS011;2011;48.238;13.948;2023-11-18T06:20:34;13.17;;;8.10;;
3993;SDS011;2011;48.238;13.948;2023-11-18T06:23:00;14.63;;;8.80;;
3993;SDS011;2011;48.238;13.948;2023-11-18T06:25:28;20.43;;;11.03;;
3993;SDS011;2011;48.238;13.948;2023-11-18T06:27:56;25.43;;;12.97;;
3993;SDS011;2011;48.238;13.948;2023-11-18T06:30:24;21.43;;;10.40;;
3993;SDS011;2011;48.238;13.948;2023-11-18T06:32:51;14.60;;;8.90;;
3993;SDS011;2011;48.238;13.948;2023-11-18T06:35:18;29.67;;;13.27;;
3993;SDS011;2011;48.238;13.948;2023-11-18T06:37:46;29.30;;;12.00;;
3993;SDS011;2011;48.238;13.948;2023-11-18T06:40:13;23.63;;;9.77;;
3993;SDS011;2011;48.238;13.948;2023-11-18T06:42:45;16.93;;;8.37;;
3993;SDS011;2011;48.238;13.948;2023-11-18T06:45:12;19.87;;;8.80;;
3993;SDS011;2011;48.238;13.948;2023-11-18T06:47:40;15.03;;;8.83;;
3993;SDS011;2011;48.238;13.948;2023-11-18T06:50:09;16.83;;;8.80;;
3993;SDS011;2011;48.238;13.948;2023-11-18T06:52:39;23.37;;;7.73;;
3993;SDS011;2011;48.238;13.948;2023-11-18T06:55:06;14.20;;;8.30;;
3993;SDS011;2011;48.238;13.948;2023-11-18T06:57:34;15.50;;;8.57;;
3993;SDS011;2011;48.238;13.948;2023-11-18T07:00:02;14.83;;;7.90;;
3993;SDS011;2011;48.238;13.948;2023-11-18T07:02:33;15.43;;;8.33;;
3993;SDS011;2011;48.238;13.948;2023-11-18T07:05:00;18.50;;;8.70;;
3993;SDS011;2011;48.238;13.948;2023-11-18T07:07:27;12.13;;;7.70;;
3993;SDS011;2011;48.238;13.948;2023-11-18T07:09:54;12.47;;;8.17;;
3993;SDS011;2011;48.238;13.948;2023-11-18T07:12:21;20.70;;;7.73;;
3993;SDS011;2011;48.238;13.948;2023-11-18T07:14:48;12.83;;;8.20;;
3993;SDS011;2011;48.238;13.948;2023-11-18T07:17:17;14.70;;;9.00;;
3993;SDS011;2011;48.238;13.948;2023-11-18T07:19:44;13.37;;;7.63;;
3993;SDS011;2011;48.238;13.948;2023-11-18T07:22:11;11.87;;;7.37;;
3993;SDS011;2011;48.238;13.948;2023-11-18T07:24:38;13.63;;;7.10;;
3993;SDS011;2011;48.238;13.948;2023-11-18T07:27:05;11.43;;;7.10;;
3993;SDS011;2011;48.238;13.948;2023-11-18T07:29:32;21.67;;;9.23;;
3993;SDS011;2011;48.238;13.948;2023-11-18T07:32:01;18.90;;;10.60;;
3993;SDS011;2011;48.238;13.948;2023-11-18T07:34:32;12.93;;;7.27;;
3993;SDS011;2011;48.238;13.948;2023-11-18T07:36:58;18.80;;;7.60;;
3993;SDS011;2011;48.238;13.948;2023-11-18T07:39:27;12.10;;;6.80;;
3993;SDS011;2011;48.238;13.948;2023-11-18T07:42:09;9.43;;;5.60;;
3993;SDS011;2011;48.238;13.948;2023-11-18T07:44:36;11.47;;;6.67;;
3993;SDS011;2011;48.238;13.948;2023-11-18T07:47:05;10.47;;;6.20;;
3993;SDS011;2011;48.238;13.948;2023-11-18T07:49:33;12.80;;;5.60;;
3993;SDS011;2011;48.238;13.948;2023-11-18T07:52:00;11.30;;;6.27;;
3993;SDS011;2011;48.238;13.948;2023-11-18T07:54:27;9.40;;;6.37;;
3993;SDS011;2011;48.238;13.948;2023-11-18T07:56:54;10.13;;;7.00;;
3993;SDS011;2011;48.238;13.948;2023-11-18T07:59:22;10.10;;;6.97;;
3993;SDS011;2011;48.238;13.948;2023-11-18T08:01:49;9.77;;;6.03;;
3993;SDS011;2011;48.238;13.948;2023-11-18T08:04:18;8.27;;;5.60;;
3993;SDS011;2011;48.238;13.948;2023-11-18T08:06:47;9.27;;;5.60;;
3993;SDS011;2011;48.238;13.948;2023-11-18T08:09:15;11.07;;;6.50;;
3993;SDS011;2011;48.238;13.948;2023-11-18T08:11:47;11.80;;;6.93;;
3993;SDS011;2011;48.238;13.948;2023-11-18T08:14:14;10.40;;;6.03;;
3993;SDS011;2011;48.238;13.948;2023-11-18T08:16:42;9.83;;;6.10;;
3993;SDS011;2011;48.238;13.948;2023-11-18T08:19:09;9.53;;;6.20;;
3993;SDS011;2011;48.238;13.948;2023-11-18T08:21:36;9.00;;;5.90;;
3993;SDS011;2011;48.238;13.948;2023-11-18T08:24:05;8.40;;;5.37;;
3993;SDS011;2011;48.238;13.948;2023-11-18T08:26:33;8.33;;;5.87;;
3993;SDS011;2011;48.238;13.948;2023-11-18T08:29:00;10.23;;;6.60;;
3993;SDS011;2011;48.238;13.948;2023-11-18T08:31:27;16.53;;;5.87;;
3993;SDS011;2011;48.238;13.948;2023-11-18T08:33:54;16.50;;;6.07;;
3993;SDS011;2011;48.238;13.948;2023-11-18T08:36:21;12.13;;;5.80;;
3993;SDS011;2011;48.238;13.948;2023-11-18T08:38:52;12.03;;;6.50;;
3993;SDS011;2011;48.238;13.948;2023-11-18T08:41:20;11.90;;;6.03;;
3993;SDS011;2011;48.238;13.948;2023-11-18T08:43:48;9.70;;;6.50;;
3993;SDS011;2011;48.238;13.948;2023-11-18T08:46:15;11.77;;;6.53;;
3993;SDS011;2011;48.238;13.948;2023-11-18T08:48:43;9.30;;;6.00;;
3993;SDS011;2011;48.238;13.948;2023-11-18T08:51:10;11.80;;;6.30;;
3993;SDS011;2011;48.238;13.948;2023-11-18T08:53:38;9.90;;;6.83;;
3993;SDS011;2011;48.238;13.948;2023-11-18T08:56:07;12.93;;;6.90;;
3993;SDS011;2011;48.238;13.948;2023-11-18T08:58:40;10.97;;;6.30;;
3993;SDS011;2011;48.238;13.948;2023-11-18T09:01:10;8.20;;;5.93;;
3993;SDS011;2011;48.238;13.948;2023-11-18T09:03:40;9.27;;;6.00;;
3993;SDS011;2011;48.238;13.948;2023-11-18T09:06:13;9.23;;;6.30;;
3993;SDS011;2011;48.238;13.948;2023-11-18T09:08:43;17.40;;;6.13;;
3993;SDS011;2011;48.238;13.948;2023-11-18T09:11:12;8.80;;;5.93;;
3993;SDS011;2011;48.238;13.948;2023-11-18T09:13:42;10.63;;;6.30;;
3993;SDS011;2011;48.238;13.948;2023-11-18T09:16:12;8.80;;;5.70;;
3993;SDS011;2011;48.238;13.948;2023-11-18T09:18:41;8.53;;;5.80;;
3993;SDS011;2011;48.238;13.948;2023-11-18T09:21:10;13.70;;;6.30;;
3993;SDS011;2011;48.238;13.948;2023-11-18T09:23:40;10.40;;;6.27;;
3993;SDS011;2011;48.238;13.948;2023-11-18T09:26:08;8.47;;;6.07;;
3993;SDS011;2011;48.238;13.948;2023-11-18T09:28:35;8.73;;;6.20;;
3993;SDS011;2011;48.238;13.948;2023-11-18T09:31:04;12.10;;;6.53;;
3993;SDS011;2011;48.238;13.948;2023-11-18T09:33:36;9.67;;;6.00;;
3993;SDS011;2011;48.238;13.948;2023-11-18T09:36:05;10.70;;;6.03;;
3993;SDS011;2011;48.238;13.948;2023-11-18T09:38:36;8.53;;;6.20;;
3993;SDS011;2011;48.238;13.948;2023-11-18T09:41:06;8.50;;;5.60;;
3993;SDS011;2011;48.238;13.948;2023-11-18T09:43:36;9.53;;;6.50;;
3993;SDS011;2011;48.238;13.948;2023-11-18T09:46:12;11.03;;;6.60;;
3993;SDS011;2011;48.238;13.948;2023-11-18T09:48:43;8.20;;;5.60;;
3993;SDS011;2011;48.238;13.948;2023-11-18T09:51:14;8.10;;;5.87;;
3993;SDS011;2011;48.238;13.948;2023-11-18T09:53:46;8.43;;;5.70;;
3993;SDS011;2011;48.238;13.948;2023-11-18T09:56:18;11.37;;;6.37;;
3993;SDS011;2011;48.238;13.948;2023-11-18T09:58:57;11.33;;;5.87;;
3993;SDS011;2011;48.238;13.948;2023-11-18T10:01:34;10.40;;;7.27;;
3993;SDS011;2011;48.238;13.948;2023-11-18T10:04:08;9.03;;;5.57;;
3993;SDS011;2011;48.238;13.948;2023-11-18T10:06:36;10.00;;;6.10;;
3993;SDS011;2011;48.238;13.948;2023-11-18T10:09:05;7.83;;;5.50;;
3993;SDS011;2011;48.238;13.948;2023-11-18T10:11:42;9.90;;;6.57;;
3993;SDS011;2011;48.238;13.948;2023-11-18T10:14:12;10.37;;;6.50;;
3993;SDS011;2011;48.238;13.948;2023-11-18T10:16:43;10.20;;;5.77;;
3993;SDS011;2011;48.238;13.948;2023-11-18T10:19:12;8.70;;;5.20;;
3993;SDS011;2011;48.238;13.948;2023-11-18T10:21:42;6.40;;;4.77;;
3993;SDS011;2011;48.238;13.948;2023-11-18T10:24:13;8.00;;;4.80;;
3993;SDS011;2011;48.238;13.948;2023-11-18T10:26:44;8.00;;;5.10;;
3993;SDS011;2011;48.238;13.948;2023-11-18T10:29:20;8.37;;;5.63;;
3993;SDS011;2011;48.238;13.948;2023-11-18T10:31:48;8.10;;;4.93;;
3993;SDS011;2011;48.238;13.948;2023-11-18T10:34:18;8.33;;;4.47;;
3993;SDS011;2011;48.238;13.948;2023-11-18T10:36:58;9.50;;;4.30;;
3993;SDS011;2011;48.238;13.948;2023-11-18T10:39:27;10.90;;;5.20;;
3993;SDS011;2011;48.238;13.948;2023-11-18T10:41:58;7.33;;;4.83;;
3993;SDS011;2011;48.238;13.948;2023-11-18T10:44:26;9.30;;;5.20;;
3993;SDS011;2011;48.238;13.948;2023-11-18T10:46:56;8.13;;;4.90;;
3993;SDS011;2011;48.238;13.948;2023-11-18T10:49:23;8.00;;;5.10;;
3993;SDS011;2011;48.238;13.948;2023-11-18T10:51:51;8.50;;;5.17;;
3993;SDS011;2011;48.238;13.948;2023-11-18T10:54:18;6.83;;;5.00;;
3993;SDS011;2011;48.238;13.948;2023-11-18T10:56:47;8.43;;;5.00;;
3993;SDS011;2011;48.238;13.948;2023-11-18T10:59:15;8.13;;;4.77;;
3993;SDS011;2011;48.238;13.948;2023-11-18T11:01:43;7.13;;;4.77;;
3993;SDS011;2011;48.238;13.948;2023-11-18T11:04:15;8.33;;;5.03;;
3993;SDS011;2011;48.238;13.948;2023-11-18T11:06:46;10.97;;;5.30;;
3993;SDS011;2011;48.238;13.948;2023-11-18T11:09:18;7.90;;;5.57;;
3993;SDS011;2011;48.238;13.948;2023-11-18T11:11:50;9.93;;;5.93;;
3993;SDS011;2011;48.238;13.948;2023-11-18T11:14:20;7.80;;;5.20;;
3993;SDS011;2011;48.238;13.948;2023-11-18T11:16:51;8.43;;;5.10;;
3993;SDS011;2011;48.238;13.948;2023-11-18T11:19:25;7.30;;;4.90;;
3993;SDS011;2011;48.238;13.948;2023-11-18T11:22:04;7.77;;;5.23;;
3993;SDS011;2011;48.238;13.948;2023-11-18T11:24:37;7.80;;;4.90;;
3993;SDS011;2011;48.238;13.948;2023-11-18T11:27:17;8.20;;;4.97;;
3993;SDS011;2011;48.238;13.948;2023-11-18T11:30:02;6.33;;;4.67;;
3993;SDS011;2011;48.238;13.948;2023-11-18T11:32:36;6.77;;;4.57;;
3993;SDS011;2011;48.238;13.948;2023-11-18T11:35:16;9.70;;;5.60;;
3993;SDS011;2011;48.238;13.948;2023-11-18T11:37:48;8.40;;;5.30;;
3993;SDS011;2011;48.238;13.948;2023-11-18T11:40:16;9.13;;;5.47;;
3993;SDS011;2011;48.238;13.948;2023-11-18T11:42:48;11.03;;;5.13;;
3993;SDS011;2011;48.238;13.948;2023-11-18T11:45:21;8.27;;;4.80;;
3993;SDS011;2011;48.238;13.948;2023-11-18T11:47:54;10.97;;;5.30;;
3993;SDS011;2011;48.238;13.948;2023-11-18T11:50:42;9.20;;;5.13;;
3993;SDS011;2011;48.238;13.948;2023-11-18T11:53:21;7.37;;;4.87;;
3993;SDS011;2011;48.238;13.948;2023-11-18T11:55:52;10.83;;;5.20;;
3993;SDS011;2011;48.238;13.948;2023-11-18T11:58:30;11.90;;;5.13;;
3993;SDS011;2011;48.238;13.948;2023-11-18T12:00:59;10.50;;;5.07;;
3993;SDS011;2011;48.238;13.948;2023-11-18T12:03:32;7.80;;;5.33;;
3993;SDS011;2011;48.238;13.948;2023-11-18T12:06:06;9.30;;;5.27;;
3993;SDS011;2011;48.238;13.948;2023-11-18T12:08:35;8.30;;;5.10;;
3993;SDS011;2011;48.238;13.948;2023-11-18T12:11:03;9.80;;;5.57;;
3993;SDS011;2011;48.238;13.948;2023-11-18T12:13:35;13.20;;;7.40;;
3993;SDS011;2011;48.238;13.948;2023-11-18T12:16:05;10.23;;;5.70;;
3993;SDS011;2011;48.238;13.948;2023-11-18T12:18:35;7.50;;;5.07;;
3993;SDS011;2011;48.238;13.948;2023-11-18T12:21:02;11.90;;;5.73;;
3993;SDS011;2011;48.238;13.948;2023-11-18T12:23:31;9.53;;;5.93;;
3993;SDS011;2011;48.238;13.948;2023-11-18T12:25:59;8.40;;;4.90;;
3993;SDS011;2011;48.238;13.948;2023-11-18T12:28:28;6.97;;;4.73;;
3993;SDS011;2011;48.238;13.948;2023-11-18T12:31:00;8.90;;;5.50;;
3993;SDS011;2011;48.238;13.948;2023-11-18T12:42:56;10.30;;;5.43;;
3993;SDS011;2011;48.238;13.948;2023-11-18T12:48:21;9.60;;;5.20;;
3993;SDS011;2011;48.238;13.948;2023-11-18T12:50:52;11.00;;;6.23;;
3993;SDS011;2011;48.238;13.948;2023-11-18T12:53:21;8.07;;;5.33;;
3993;SDS011;2011;48.238;13.948;2023-11-18T12:55:51;9.53;;;5.87;;
3993;SDS011;2011;48.238;13.948;2023-11-18T12:58:19;10.20;;;5.60;;
3993;SDS011;2011;48.238;13.948;2023-11-18T13:00:48;9.00;;;5.43;;
3993;SDS011;2011;48.238;13.948;2023-11-18T13:03:15;12.50;;;7.13;;
3993;SDS011;2011;48.238;13.948;2023-11-18T13:05:43;11.03;;;6.87;;
3993;SDS011;2011;48.238;13.948;2023-11-18T13:08:10;8.27;;;5.80;;
3993;SDS011;2011;48.238;13.948;2023-11-18T13:10:40;9.60;;;6.17;;
3993;SDS011;2011;48.238;13.948;2023-11-18T13:13:09;12.23;;;6.83;;
3993;SDS011;2011;48.238;13.948;2023-11-18T13:15:39;11.30;;;6.50;;
3993;SDS011;2011;48.238;13.948;2023-11-18T13:18:06;9.57;;;6.60;;
3993;SDS011;2011;48.238;13.948;2023-11-18T13:20:34;8.63;;;6.33;;
3993;SDS011;2011;48.238;13.948;2023-11-18T13:23:01;11.30;;;6.67;;
3993;SDS011;2011;48.238;13.948;2023-11-18T13:25:33;10.10;;;6.47;;
3993;SDS011;2011;48.238;13.948;2023-11-18T13:28:01;8.93;;;6.00;;
3993;SDS011;2011;48.238;13.948;2023-11-18T13:30:32;8.20;;;5.70;;
3993;SDS011;2011;48.238;13.948;2023-11-18T13:32:59;12.80;;;6.43;;
3993;SDS011;2011;48.238;13.948;2023-11-18T13:35:28;10.07;;;6.70;;
3993;SDS011;2011;48.238;13.948;2023-11-18T13:37:55;11.53;;;6.70;;
3993;SDS011;2011;48.238;13.948;2023-11-18T13:40:23;11.40;;;6.40;;
3993;SDS011;2011;48.238;13.948;2023-11-18T13:43:00;13.07;;;6.97;;
3993;SDS011;2011;48.238;13.948;2023-11-18T13:45:31;8.27;;;5.80;;
3993;SDS011;2011;48.238;13.948;2023-11-18T13:47:59;11.90;;;6.83;;
3993;SDS011;2011;48.238;13.948;2023-11-18T13:50:27;11.20;;;6.90;;
3993;SDS011;2011;48.238;13.948;2023-11-18T13:52:54;11.27;;;7.00;;
3993;SDS011;2011;48.238;13.948;2023-11-18T13:55:22;7.83;;;5.87;;
3993;SDS011;2011;48.238;13.948;2023-11-18T13:57:53;18.00;;;6.00;;
3993;SDS011;2011;48.238;13.948;2023-11-18T14:00:22;13.37;;;6.37;;
3993;SDS011;2011;48.238;13.948;2023-11-18T14:02:56;12.83;;;7.07;;
3993;SDS011;2011;48.238;13.948;2023-11-18T14:05:24;13.13;;;7.10;;
3993;SDS011;2011;48.238;13.948;2023-11-18T14:07:51;9.10;;;5.90;;
3993;SDS011;2011;48.238;13.948;2023-11-18T14:10:20;8.53;;;6.00;;
3993;SDS011;2011;48.238;13.948;2023-11-18T14:12:58;9.73;;;5.40;;
3993;SDS011;2011;48.238;13.948;2023-11-18T14:15:26;10.30;;;6.47;;
3993;SDS011;2011;48.238;13.948;2023-11-18T14:17:54;11.13;;;6.20;;
3993;SDS011;2011;48.238;13.948;2023-11-18T14:20:21;13.17;;;6.93;;
3993;SDS011;2011;48.238;13.948;2023-11-18T14:22:48;12.40;;;6.90;;
3993;SDS011;2011;48.238;13.948;2023-11-18T14:25:16;11.50;;;6.97;;
3993;SDS011;2011;48.238;13.948;2023-11-18T14:27:43;13.57;;;7.60;;
3993;SDS011;2011;48.238;13.948;2023-11-18T14:30:11;23.77;;;7.40;;
3993;SDS011;2011;48.238;13.948;2023-11-18T14:32:38;11.70;;;6.83;;
3993;SDS011;2011;48.238;13.948;2023-11-18T14:35:07;16.53;;;7.63;;
3993;SDS011;2011;48.238;13.948;2023-11-18T14:37:37;8.67;;;6.47;;
3993;SDS011;2011;48.238;13.948;2023-11-18T14:40:07;10.60;;;6.67;;
3993;SDS011;2011;48.238;13.948;2023-11-18T14:42:43;13.87;;;7.50;;
3993;SDS011;2011;48.238;13.948;2023-11-18T14:45:13;11.57;;;7.00;;
3993;SDS011;2011;48.238;13.948;2023-11-18T14:47:41;12.93;;;7.63;;
3993;SDS011;2011;48.238;13.948;2023-11-18T14:50:11;9.90;;;6.27;;
3993;SDS011;2011;48.238;13.948;2023-11-18T14:52:43;13.37;;;7.80;;
3993;SDS011;2011;48.238;13.948;2023-11-18T14:55:10;10.17;;;7.67;;
3993;SDS011;2011;48.238;13.948;2023-11-18T14:57:38;9.50;;;6.53;;
3993;SDS011;2011;48.238;13.948;2023-11-18T15:00:06;10.27;;;6.53;;
3993;SDS011;2011;48.238;13.948;2023-11-18T15:02:34;10.10;;;7.33;;
3993;SDS011;2011;48.238;13.948;2023-11-18T15:05:01;12.27;;;6.60;;
3993;SDS011;2011;48.238;13.948;2023-11-18T15:07:32;10.80;;;7.50;;
3993;SDS011;2011;48.238;13.948;2023-11-18T15:09:58;11.63;;;7.10;;
3993;SDS011;2011;48.238;13.948;2023-11-18T15:12:26;10.37;;;7.33;;
3993;SDS011;2011;48.238;13.948;2023-11-18T15:14:53;11.70;;;7.17;;